Time;durP1;ratioP1;P1;durP2;ratioP2;P2;SDS_P1;SDS_P2;PMS_P1;PMS_P2;Temp;Humidity;BMP_temperature;BMP_pressure;BME280_temperature;BME280_humidity;BME280_pressure;Samples;Min_cycle;Max_cycle;Signal;HPM_P1;HPM_P2
2021/05/12 00:01:46;;;;;;;2.38;2.08;;;11.10;67.10;;;;;;5061127;28;20056;-91
2021/05/12 00:04:12;;;;;;;2.20;1.80;;;11.00;66.50;;;;;;5061747;28;20173;-91
2021/05/12 00:06:38;;;;;;;2.03;1.80;;;11.00;66.70;;;;;;5063584;28;20036;-91
2021/05/12 00:09:04;;;;;;;2.40;2.20;;;11.00;66.70;;;;;;5064774;28;20029;-91
2021/05/12 00:11:29;;;;;;;3.30;2.10;;;10.90;66.90;;;;;;5065711;28;20028;-91
2021/05/12 00:13:55;;;;;;;3.20;2.20;;;10.90;66.90;;;;;;5066236;28;20537;-90
2021/05/12 00:16:21;;;;;;;2.15;1.95;;;10.90;67.00;;;;;;5069996;28;20035;-92
2021/05/12 00:18:47;;;;;;;3.25;2.10;;;10.80;67.10;;;;;;5065783;28;20474;-91
2021/05/12 00:21:39;;;;;;;2.13;1.95;;;10.70;67.70;;;;;;5061828;28;20032;-91
2021/05/12 00:24:00;;;;;;;2.88;2.15;;;10.70;67.70;;;;;;5079100;28;20047;-91
2021/05/12 00:26:30;;;;;;;2.40;2.20;;;10.70;68.00;;;;;;5062106;28;20040;-91
2021/05/12 00:28:56;;;;;;;1.90;1.80;;;10.60;68.40;;;;;;5062413;28;20123;-91
2021/05/12 00:31:21;;;;;;;1.67;1.58;;;10.60;68.20;;;;;;5060186;28;20470;-91
2021/05/12 00:33:47;;;;;;;3.67;1.90;;;10.60;68.40;;;;;;5078554;28;20113;-91
2021/05/12 00:36:13;;;;;;;1.70;1.60;;;10.50;68.50;;;;;;5060849;28;20024;-91
2021/05/12 00:38:38;;;;;;;2.65;2.42;;;10.50;68.80;;;;;;5062421;28;20032;-91
2021/05/12 00:41:04;;;;;;;2.30;2.00;;;10.50;69.70;;;;;;5063370;28;20024;-91
2021/05/12 00:43:30;;;;;;;2.38;2.17;;;10.40;69.70;;;;;;5082398;28;20032;-91
2021/05/12 00:45:56;;;;;;;1.60;1.50;;;10.40;70.20;;;;;;5063474;28;20082;-91
2021/05/12 00:48:22;;;;;;;2.03;1.77;;;10.40;70.00;;;;;;5061527;28;20036;-92
2021/05/12 00:50:47;;;;;;;5.38;1.60;;;10.40;70.10;;;;;;5061668;28;20020;-91
2021/05/12 00:53:13;;;;;;;5.68;1.73;;;10.40;70.20;;;;;;5062499;28;20020;-90
2021/05/12 00:55:39;;;;;;;1.88;1.70;;;10.30;70.30;;;;;;5063006;28;20032;-91
2021/05/12 00:58:05;;;;;;;2.03;1.70;;;10.30;70.30;;;;;;5063830;28;20360;-91
2021/05/12 01:00:31;;;;;;;1.60;1.50;;;10.30;70.40;;;;;;5062339;28;20063;-91
2021/05/12 01:02:58;;;;;;;1.70;1.60;;;10.20;70.40;;;;;;5062368;28;20098;-91
2021/05/12 01:05:58;;;;;;;2.35;1.60;;;10.20;70.70;;;;;;5078663;28;20027;-91
2021/05/12 01:08:24;;;;;;;2.15;1.75;;;10.10;70.90;;;;;;5060763;28;20028;-91
2021/05/12 01:10:50;;;;;;;1.60;1.50;;;10.10;70.80;;;;;;5060114;28;20021;-91
2021/05/12 01:13:16;;;;;;;1.70;1.60;;;10.10;70.80;;;;;;5060067;28;20467;-91
2021/05/12 01:15:43;;;;;;;1.40;1.27;;;10.10;71.00;;;;;;5067174;28;20481;-91
2021/05/12 01:18:10;;;;;;;1.52;1.42;;;10.00;71.10;;;;;;5060389;28;20020;-91
2021/05/12 01:20:49;;;;;;;3.03;1.63;;;10.00;71.20;;;;;;5063750;28;20092;-91
2021/05/12 01:23:19;;;;;;;1.50;1.40;;;10.00;71.50;;;;;;5088363;28;20119;-91
2021/05/12 01:25:46;;;;;;;1.80;1.67;;;10.00;71.30;;;;;;5068275;28;20032;-91
2021/05/12 01:28:11;;;;;;;2.05;1.80;;;9.90;71.40;;;;;;5073980;28;20024;-91
2021/05/12 01:30:37;;;;;;;1.70;1.60;;;9.90;71.50;;;;;;5067130;28;20089;-91
2021/05/12 01:33:03;;;;;;;2.30;1.50;;;9.90;71.80;;;;;;5060608;28;20025;-91
2021/05/12 01:35:29;;;;;;;1.45;1.35;;;9.80;71.90;;;;;;5059343;28;20032;-91
2021/05/12 01:37:55;;;;;;;1.38;1.27;;;9.80;72.00;;;;;;5062272;28;20030;-91
2021/05/12 01:40:21;;;;;;;1.70;1.60;;;9.80;72.00;;;;;;5060811;28;20046;-91
2021/05/12 01:42:46;;;;;;;1.38;1.27;;;9.80;72.10;;;;;;5058121;28;20025;-91
2021/05/12 01:45:13;;;;;;;1.20;1.10;;;9.80;72.30;;;;;;5058599;28;20104;-91
2021/05/12 01:47:38;;;;;;;1.00;1.00;;;9.80;72.10;;;;;;5075771;28;20131;-91
2021/05/12 01:50:08;;;;;;;2.20;1.27;;;9.70;72.10;;;;;;5076696;28;20032;-91
2021/05/12 01:52:41;;;;;;;1.33;1.25;;;9.70;72.30;;;;;;5049410;28;20051;-91
2021/05/12 01:55:10;;;;;;;1.77;1.67;;;9.70;72.10;;;;;;5064761;28;20032;-91
2021/05/12 01:57:38;;;;;;;0.90;0.90;;;9.70;72.50;;;;;;5062324;28;20025;-91
2021/05/12 02:00:25;;;;;;;1.30;1.20;;;9.70;72.50;;;;;;5079351;28;20028;-90
2021/05/12 02:02:52;;;;;;;0.98;0.98;;;9.60;72.90;;;;;;5065174;28;20051;-90
2021/05/12 02:05:18;;;;;;;1.35;1.25;;;9.60;72.80;;;;;;5064659;28;20033;-91
2021/05/12 02:07:44;;;;;;;1.30;1.20;;;9.60;72.80;;;;;;5042124;28;20032;-91
2021/05/12 02:10:10;;;;;;;1.42;1.33;;;9.50;72.80;;;;;;5076129;28;20047;-91
2021/05/12 02:12:37;;;;;;;1.50;1.40;;;9.50;73.10;;;;;;5057776;28;20028;-91
2021/05/12 02:15:04;;;;;;;2.20;1.20;;;9.50;73.50;;;;;;5075197;28;20029;-91
2021/05/12 02:17:30;;;;;;;1.48;1.27;;;9.50;73.30;;;;;;5058508;28;20032;-91
2021/05/12 02:19:55;;;;;;;1.23;1.13;;;9.50;73.90;;;;;;5057823;28;20021;-91
2021/05/12 02:22:21;;;;;;;2.30;1.17;;;9.50;74.60;;;;;;5058578;28;20020;-91
2021/05/12 02:24:47;;;;;;;1.45;1.00;;;9.50;74.70;;;;;;5057251;28;20039;-91
2021/05/12 02:27:13;;;;;;;1.55;1.10;;;9.50;74.40;;;;;;5057492;28;20028;-91
2021/05/12 02:29:39;;;;;;;1.52;1.02;;;9.50;74.60;;;;;;5058496;28;20418;-90
2021/05/12 02:32:04;;;;;;;0.90;0.90;;;9.60;74.70;;;;;;5058621;28;20086;-91
2021/05/12 02:34:30;;;;;;;1.00;1.00;;;9.60;74.80;;;;;;5057759;28;20020;-92
2021/05/12 02:36:56;;;;;;;1.17;1.08;;;9.70;74.90;;;;;;5058440;28;20445;-91
2021/05/12 02:39:22;;;;;;;2.28;1.00;;;9.80;74.80;;;;;;5059356;28;20024;-91
2021/05/12 02:41:47;;;;;;;0.77;0.77;;;9.80;74.90;;;;;;5058450;28;20025;-91
2021/05/12 02:44:13;;;;;;;2.17;0.90;;;10.00;74.90;;;;;;5077716;28;20028;-91
2021/05/12 02:46:39;;;;;;;0.70;0.70;;;10.00;74.20;;;;;;5060903;28;20037;-91
2021/05/12 02:49:04;;;;;;;0.68;0.60;;;10.10;74.20;;;;;;5058264;28;20033;-91
2021/05/12 02:51:30;;;;;;;0.70;0.70;;;10.10;73.80;;;;;;5059893;28;20035;-91
2021/05/12 02:53:56;;;;;;;0.98;0.88;;;10.10;73.90;;;;;;5060164;28;20044;-91
2021/05/12 02:56:23;;;;;;;1.35;0.70;;;10.10;73.80;;;;;;5062349;28;20051;-91
2021/05/12 02:58:48;;;;;;;0.80;0.73;;;10.00;74.50;;;;;;5061481;28;20407;-90
2021/05/12 03:01:14;;;;;;;0.98;0.85;;;10.00;74.00;;;;;;5062400;28;20032;-91
2021/05/12 03:03:40;;;;;;;1.23;0.70;;;10.00;74.10;;;;;;5062945;28;20056;-91
2021/05/12 03:06:06;;;;;;;0.70;0.70;;;10.00;73.90;;;;;;5061876;28;20044;-91
2021/05/12 03:08:31;;;;;;;0.65;0.65;;;10.00;73.90;;;;;;5068351;28;20547;-91
2021/05/12 03:10:57;;;;;;;0.82;0.68;;;10.10;73.80;;;;;;5072751;28;20035;-91
2021/05/12 03:13:23;;;;;;;0.77;0.77;;;10.10;73.80;;;;;;5072301;28;20028;-91
2021/05/12 03:15:48;;;;;;;2.63;0.77;;;10.10;73.90;;;;;;5070702;28;20032;-91
2021/05/12 03:18:14;;;;;;;1.30;1.13;;;10.10;73.70;;;;;;5064416;28;20379;-91
2021/05/12 03:20:40;;;;;;;1.13;0.98;;;10.10;74.20;;;;;;5061462;28;20032;-90
2021/05/12 03:23:06;;;;;;;0.77;0.70;;;10.10;74.30;;;;;;5061414;28;20028;-91
2021/05/12 03:25:31;;;;;;;0.90;0.90;;;10.10;74.10;;;;;;5061476;28;20501;-91
2021/05/12 03:27:57;;;;;;;1.13;1.02;;;10.10;74.30;;;;;;5061831;28;20048;-91
2021/05/12 03:30:32;;;;;;;0.75;0.75;;;10.10;74.10;;;;;;5061442;28;20115;-91
2021/05/12 03:32:58;;;;;;;0.80;0.80;;;10.00;74.30;;;;;;5060860;28;20029;-91
2021/05/12 03:35:24;;;;;;;0.77;0.77;;;10.00;74.40;;;;;;5061326;28;20025;-91
2021/05/12 03:37:50;;;;;;;0.60;0.60;;;10.00;74.80;;;;;;5063016;28;20069;-91
2021/05/12 03:40:17;;;;;;;0.70;0.70;;;9.90;75.00;;;;;;5063900;28;20032;-90
2021/05/12 03:42:43;;;;;;;1.25;0.90;;;9.90;75.30;;;;;;5060880;28;20027;-91
2021/05/12 03:45:10;;;;;;;0.80;0.80;;;10.00;75.60;;;;;;5061948;28;20028;-91
2021/05/12 03:47:36;;;;;;;0.68;0.68;;;10.10;75.70;;;;;;5062324;28;20054;-91
2021/05/12 03:50:04;;;;;;;1.35;0.95;;;10.30;75.40;;;;;;5063107;28;20476;-91
2021/05/12 03:52:30;;;;;;;0.70;0.60;;;10.40;75.10;;;;;;5062482;28;20036;-91
2021/05/12 03:54:56;;;;;;;2.38;2.22;;;10.50;74.70;;;;;;5063641;28;20032;-91
2021/05/12 03:57:21;;;;;;;1.05;1.00;;;10.60;74.40;;;;;;5062894;28;20033;-91
2021/05/12 03:59:47;;;;;;;3.33;1.27;;;10.60;74.10;;;;;;5062189;28;20031;-91
2021/05/12 04:02:13;;;;;;;0.88;0.88;;;10.60;74.00;;;;;;5080296;28;20070;-90
2021/05/12 04:04:38;;;;;;;1.23;1.00;;;10.60;73.90;;;;;;5063757;28;20025;-91
2021/05/12 04:07:05;;;;;;;1.15;0.95;;;10.60;74.00;;;;;;5063734;28;20118;-92
2021/05/12 04:09:31;;;;;;;3.90;1.00;;;10.50;74.00;;;;;;5080998;28;20025;-91
2021/05/12 04:11:57;;;;;;;0.93;0.93;;;10.50;74.10;;;;;;5062277;28;20465;-91
2021/05/12 04:14:23;;;;;;;2.13;1.00;;;10.60;74.50;;;;;;5062834;28;20057;-91
2021/05/12 04:16:51;;;;;;;0.88;0.80;;;10.60;74.40;;;;;;5059642;28;20032;-91
2021/05/12 04:19:17;;;;;;;0.82;0.82;;;10.70;74.40;;;;;;5062213;28;20031;-91
2021/05/12 04:21:43;;;;;;;2.20;1.10;;;10.70;74.30;;;;;;5067746;28;20048;-91
2021/05/12 04:24:09;;;;;;;1.02;1.02;;;10.90;74.20;;;;;;5068410;28;20025;-91
2021/05/12 04:26:35;;;;;;;1.42;1.10;;;11.00;73.90;;;;;;5067950;28;20040;-91
2021/05/12 04:29:01;;;;;;;2.22;1.20;;;11.00;73.70;;;;;;5063885;28;20596;-91
2021/05/12 04:31:27;;;;;;;1.48;1.38;;;11.00;73.40;;;;;;5065870;28;20490;-90
2021/05/12 04:33:53;;;;;;;1.10;1.00;;;11.10;73.40;;;;;;5067600;28;20028;-91
2021/05/12 04:36:19;;;;;;;1.20;1.08;;;11.00;73.40;;;;;;5080848;28;20035;-92
2021/05/12 04:38:44;;;;;;;1.20;1.10;;;11.00;73.40;;;;;;5063260;28;20088;-91
2021/05/12 04:41:10;;;;;;;1.98;1.30;;;11.10;73.60;;;;;;5063548;28;20602;-91
2021/05/12 04:43:36;;;;;;;2.65;1.60;;;11.10;73.60;;;;;;5063129;28;20048;-91
2021/05/12 04:46:02;;;;;;;2.00;1.27;;;11.10;73.60;;;;;;5062232;28;20392;-91
2021/05/12 04:48:31;;;;;;;1.23;1.13;;;11.20;73.70;;;;;;5061611;28;20062;-91
2021/05/12 04:50:58;;;;;;;1.60;1.50;;;11.30;73.60;;;;;;5065188;28;20056;-90
2021/05/12 04:53:24;;;;;;;2.00;1.38;;;11.40;73.60;;;;;;5067911;28;20045;-91
2021/05/12 04:55:50;;;;;;;2.30;1.20;;;11.50;73.20;;;;;;5064684;28;20033;-91
2021/05/12 04:58:15;;;;;;;1.20;1.10;;;11.60;73.10;;;;;;5065404;28;20410;-91
2021/05/12 05:00:41;;;;;;;1.50;1.40;;;11.70;72.80;;;;;;5066587;28;20048;-91
2021/05/12 05:03:08;;;;;;;1.60;1.50;;;11.70;72.50;;;;;;5069322;28;20053;-92
2021/05/12 05:05:34;;;;;;;1.27;1.20;;;11.80;72.40;;;;;;5074691;28;20049;-93
2021/05/12 05:08:01;;;;;;;1.63;1.52;;;11.90;72.40;;;;;;5078046;28;20041;-93
2021/05/12 05:10:27;;;;;;;4.13;1.63;;;12.00;72.30;;;;;;5074605;28;20044;-91
2021/05/12 05:12:53;;;;;;;3.42;1.55;;;12.10;71.80;;;;;;5076125;28;20092;-92
2021/05/12 05:15:21;;;;;;;3.38;1.50;;;12.30;71.40;;;;;;5094883;28;20024;-93
2021/05/12 05:17:57;;;;;;;2.80;1.45;;;12.30;71.00;;;;;;5043784;28;20055;-93
2021/05/12 05:20:24;;;;;;;0.88;0.88;;;12.40;71.00;;;;;;5052350;28;20036;-91
2021/05/12 05:22:51;;;;;;;2.72;2.13;;;12.50;70.90;;;;;;5073899;28;20025;-91
2021/05/12 05:25:20;;;;;;;1.30;1.20;;;12.60;70.10;;;;;;5085497;28;20029;-91
2021/05/12 05:27:46;;;;;;;2.40;1.17;;;12.70;69.90;;;;;;5068827;28;20028;-91
2021/05/12 05:30:12;;;;;;;1.30;1.20;;;12.70;69.40;;;;;;5068515;28;20043;-91
2021/05/12 05:32:38;;;;;;;1.48;0.95;;;12.80;69.00;;;;;;5070127;28;20051;-91
2021/05/12 05:35:06;;;;;;;2.15;1.65;;;12.90;68.50;;;;;;5070206;28;20016;-91
2021/05/12 05:37:34;;;;;;;2.65;1.65;;;12.90;68.40;;;;;;5071088;28;20032;-91
2021/05/12 05:40:05;;;;;;;1.98;1.77;;;12.90;68.10;;;;;;5069355;28;20311;-91
2021/05/12 05:42:31;;;;;;;1.20;1.13;;;13.00;68.20;;;;;;5070316;28;20024;-90
2021/05/12 05:44:57;;;;;;;1.65;1.10;;;13.00;67.60;;;;;;5068661;28;20089;-90
2021/05/12 05:47:23;;;;;;;0.80;0.80;;;13.10;67.10;;;;;;5049698;28;20044;-90
2021/05/12 05:49:49;;;;;;;1.00;0.90;;;13.10;66.90;;;;;;5046376;28;20053;-91
2021/05/12 05:52:15;;;;;;;1.27;0.80;;;13.10;67.10;;;;;;5045103;28;20025;-90
2021/05/12 05:54:40;;;;;;;0.80;0.80;;;13.20;66.80;;;;;;5047371;28;20033;-91
2021/05/12 05:57:14;;;;;;;6.60;2.13;;;13.30;66.70;;;;;;5052585;28;20025;-90
2021/05/12 05:59:39;;;;;;;0.80;0.80;;;13.40;66.20;;;;;;5054663;28;20029;-91
2021/05/12 06:02:06;;;;;;;1.30;1.20;;;13.50;65.70;;;;;;5070719;28;20060;-90
2021/05/12 06:04:34;;;;;;;1.52;1.30;;;13.60;65.70;;;;;;5051126;28;20049;-90
2021/05/12 06:07:08;;;;;;;1.00;0.70;;;13.70;65.60;;;;;;5070241;28;20064;-90
2021/05/12 06:09:33;;;;;;;0.88;0.88;;;13.80;64.80;;;;;;5051377;28;20044;-91
2021/05/12 06:12:04;;;;;;;2.63;1.75;;;13.90;64.50;;;;;;5051152;28;20034;-90
2021/05/12 06:14:30;;;;;;;1.77;0.93;;;14.10;64.30;;;;;;5053732;28;20029;-90
2021/05/12 06:16:56;;;;;;;1.30;0.80;;;14.10;63.60;;;;;;5053163;28;20038;-91
2021/05/12 06:19:21;;;;;;;0.70;0.70;;;14.20;63.20;;;;;;5052436;28;20027;-91
2021/05/12 06:21:55;;;;;;;2.13;1.33;;;14.20;63.20;;;;;;5051654;28;20025;-90
2021/05/12 06:24:21;;;;;;;2.60;1.20;;;14.30;62.90;;;;;;5051946;28;20021;-91
2021/05/12 06:26:49;;;;;;;1.33;1.10;;;14.40;62.70;;;;;;5053411;28;20075;-91
2021/05/12 06:29:18;;;;;;;1.67;1.15;;;14.40;61.80;;;;;;5054935;28;20029;-91
2021/05/12 06:31:44;;;;;;;0.73;0.73;;;14.40;61.90;;;;;;5055895;28;20025;-91
2021/05/12 06:34:10;;;;;;;1.83;0.82;;;14.40;61.80;;;;;;5056231;28;20028;-91
2021/05/12 06:36:38;;;;;;;3.22;1.50;;;14.40;62.10;;;;;;5055572;28;20010;-91
2021/05/12 06:39:05;;;;;;;2.08;1.63;;;14.30;62.10;;;;;;5057266;28;20022;-91
2021/05/12 06:41:34;;;;;;;1.88;1.73;;;14.20;61.90;;;;;;5057762;28;20030;-91
2021/05/12 06:44:06;;;;;;;1.33;1.20;;;14.10;61.80;;;;;;5056478;28;20045;-90
2021/05/12 06:46:32;;;;;;;0.77;0.77;;;14.00;61.60;;;;;;5057632;28;20213;-90
2021/05/12 06:48:58;;;;;;;1.58;1.10;;;13.90;61.60;;;;;;5041156;28;20041;-91
2021/05/12 06:51:24;;;;;;;0.75;0.73;;;13.70;61.70;;;;;;5055457;28;20064;-91
2021/05/12 06:53:49;;;;;;;0.65;0.60;;;13.60;61.80;;;;;;5056120;28;20022;-91
2021/05/12 06:56:15;;;;;;;4.32;1.92;;;13.60;62.10;;;;;;5057207;28;20033;-91
2021/05/12 06:58:53;;;;;;;0.75;0.75;;;13.60;62.40;;;;;;5057908;28;20020;-91
2021/05/12 07:01:21;;;;;;;1.10;1.00;;;13.70;62.30;;;;;;5075890;28;20044;-90
2021/05/12 07:03:50;;;;;;;0.80;0.80;;;13.70;62.00;;;;;;5056789;28;20060;-90
2021/05/12 07:06:18;;;;;;;1.42;1.33;;;13.80;62.00;;;;;;5054078;28;20102;-90
2021/05/12 07:08:48;;;;;;;4.10;1.13;;;13.80;61.80;;;;;;5054056;28;20033;-90
2021/05/12 07:11:17;;;;;;;1.83;1.10;;;13.70;61.80;;;;;;5065971;28;20036;-91
2021/05/12 07:13:44;;;;;;;2.70;1.92;;;13.70;61.60;;;;;;5075075;28;20041;-90
2021/05/12 07:16:10;;;;;;;1.92;1.40;;;13.80;61.80;;;;;;5072125;28;20032;-91
2021/05/12 07:18:36;;;;;;;1.40;1.30;;;13.80;62.00;;;;;;5075044;28;20047;-90
2021/05/12 07:21:05;;;;;;;2.53;1.02;;;14.00;61.80;;;;;;5074860;28;20032;-90
2021/05/12 07:23:31;;;;;;;1.35;1.15;;;14.00;61.40;;;;;;5075207;28;20039;-91
2021/05/12 07:26:02;;;;;;;1.55;1.33;;;14.10;61.30;;;;;;5074345;28;20036;-90
2021/05/12 07:28:27;;;;;;;1.80;0.90;;;14.10;61.30;;;;;;5075803;28;20025;-89
2021/05/12 07:30:53;;;;;;;1.10;1.00;;;14.00;61.30;;;;;;5057050;28;20025;-90
2021/05/12 07:33:19;;;;;;;1.40;1.30;;;14.00;61.50;;;;;;5070358;28;20021;-91
2021/05/12 07:35:46;;;;;;;1.30;1.20;;;14.00;61.60;;;;;;5066985;28;20035;-89
2021/05/12 07:38:12;;;;;;;1.58;1.48;;;14.00;61.60;;;;;;5071595;28;20108;-91
2021/05/12 07:40:38;;;;;;;1.80;1.70;;;14.10;61.60;;;;;;5067912;28;20024;-90
2021/05/12 07:43:13;;;;;;;2.08;1.27;;;14.20;61.60;;;;;;5070506;28;20025;-90
2021/05/12 07:45:40;;;;;;;4.30;1.38;;;14.20;61.30;;;;;;5071948;28;20028;-91
2021/05/12 07:48:10;;;;;;;1.77;1.63;;;14.40;61.30;;;;;;5070868;28;20037;-90
2021/05/12 07:50:39;;;;;;;2.38;2.17;;;14.50;60.70;;;;;;5071990;28;20033;-91
2021/05/12 07:53:06;;;;;;;2.67;2.25;;;14.70;60.30;;;;;;5072393;28;20028;-90
2021/05/12 07:55:33;;;;;;;1.85;1.65;;;14.70;60.40;;;;;;5068370;28;20078;-91
2021/05/12 07:57:59;;;;;;;2.25;2.05;;;14.80;60.50;;;;;;5071004;28;20036;-90
2021/05/12 08:00:25;;;;;;;4.20;3.33;;;14.90;59.80;;;;;;5069743;28;20080;-90
2021/05/12 08:02:51;;;;;;;3.00;2.72;;;14.80;59.60;;;;;;5066616;28;20075;-90
2021/05/12 08:05:17;;;;;;;2.25;1.92;;;14.90;59.70;;;;;;5068016;28;20041;-90
2021/05/12 08:07:43;;;;;;;2.85;1.88;;;14.90;59.80;;;;;;5071867;28;20047;-89
2021/05/12 08:10:10;;;;;;;2.85;2.42;;;15.00;59.30;;;;;;5071072;28;20123;-90
2021/05/12 08:12:36;;;;;;;3.08;2.30;;;15.20;59.20;;;;;;5051055;28;20036;-90
2021/05/12 08:15:02;;;;;;;2.22;1.98;;;15.30;59.10;;;;;;5068905;28;20033;-91
2021/05/12 08:17:29;;;;;;;2.50;1.90;;;15.40;58.80;;;;;;5063268;28;20032;-91
2021/05/12 08:20:01;;;;;;;2.00;1.90;;;15.50;58.10;;;;;;5072696;28;20028;-91
2021/05/12 08:22:28;;;;;;;1.95;1.60;;;15.50;57.90;;;;;;5076254;28;20013;-91
2021/05/12 08:24:54;;;;;;;3.05;2.40;;;15.50;58.00;;;;;;5074903;28;20029;-91
2021/05/12 08:27:20;;;;;;;2.95;2.50;;;15.60;57.80;;;;;;5074384;28;20056;-91
2021/05/12 08:29:46;;;;;;;2.72;2.10;;;15.60;57.60;;;;;;5074409;28;20025;-89
2021/05/12 08:32:15;;;;;;;2.30;2.10;;;15.70;57.50;;;;;;5074972;28;20056;-91
2021/05/12 08:34:41;;;;;;;2.03;1.83;;;15.90;56.70;;;;;;5075579;28;20063;-91
2021/05/12 08:37:10;;;;;;;2.70;2.13;;;16.00;56.50;;;;;;5075696;28;20053;-91
2021/05/12 08:39:39;;;;;;;2.65;2.40;;;16.10;56.20;;;;;;5075639;28;20025;-91
2021/05/12 08:42:07;;;;;;;2.20;1.90;;;16.10;56.20;;;;;;5076057;28;20017;-91
2021/05/12 08:44:44;;;;;;;6.20;2.42;;;16.20;56.40;;;;;;5076964;28;20016;-90
2021/05/12 08:47:16;;;;;;;1.80;1.70;;;16.30;56.50;;;;;;5075066;28;20055;-91
2021/05/12 08:49:44;;;;;;;1.70;1.60;;;16.40;55.60;;;;;;5074834;28;20017;-90
2021/05/12 08:52:18;;;;;;;5.68;1.80;;;16.40;55.20;;;;;;5074335;28;20052;-90
2021/05/12 08:54:50;;;;;;;1.40;1.30;;;16.30;53.20;;;;;;5068310;28;20029;-90
2021/05/12 08:57:20;;;;;;;1.70;1.38;;;16.20;52.80;;;;;;5062895;28;20036;-90
2021/05/12 08:59:46;;;;;;;1.35;1.25;;;16.20;53.00;;;;;;5058692;28;20029;-90
2021/05/12 09:02:12;;;;;;;2.42;1.23;;;16.20;52.80;;;;;;5064831;28;20047;-90
2021/05/12 09:04:39;;;;;;;1.55;1.45;;;16.20;53.10;;;;;;5053240;28;20049;-89
2021/05/12 09:07:05;;;;;;;3.05;1.63;;;16.10;53.40;;;;;;5061352;28;20029;-90
2021/05/12 09:09:31;;;;;;;2.85;1.80;;;16.30;53.90;;;;;;5048499;28;20397;-90
2021/05/12 09:11:57;;;;;;;1.58;1.40;;;16.50;53.60;;;;;;5037073;28;20025;-90
2021/05/12 09:14:35;;;;;;;2.47;1.90;;;16.60;53.60;;;;;;5042324;28;20112;-89
2021/05/12 09:17:02;;;;;;;1.35;1.25;;;16.70;53.20;;;;;;5058358;28;20036;-90
2021/05/12 09:19:28;;;;;;;1.38;1.27;;;16.70;53.70;;;;;;5043197;28;20029;-89
2021/05/12 09:22:04;;;;;;;2.25;1.80;;;16.80;54.50;;;;;;5043755;28;20476;-89
2021/05/12 09:24:32;;;;;;;2.20;1.63;;;16.90;54.20;;;;;;5052070;28;20056;-90
2021/05/12 09:27:22;;;;;;;1.88;1.73;;;16.80;53.80;;;;;;5037069;28;20025;-89
2021/05/12 09:30:00;;;;;;;1.60;1.50;;;16.70;53.30;;;;;;5043979;28;20039;-89
2021/05/12 09:32:49;;;;;;;2.40;1.70;;;16.60;53.30;;;;;;5054451;28;20123;-89
2021/05/12 09:35:36;;;;;;;3.03;1.38;;;16.60;53.10;;;;;;5058366;28;20021;-91
2021/05/12 09:38:30;;;;;;;2.30;1.83;;;16.70;53.10;;;;;;4987708;28;20046;-91
2021/05/12 09:41:11;;;;;;;1.27;1.17;;;16.70;52.10;;;;;;5071259;28;20104;-91
2021/05/12 09:44:05;;;;;;;1.60;1.50;;;16.60;52.20;;;;;;5067739;28;20092;-90
2021/05/12 09:46:37;;;;;;;1.25;1.10;;;16.60;52.20;;;;;;5058852;28;20040;-91
2021/05/12 09:49:02;;;;;;;2.33;1.60;;;16.60;52.50;;;;;;5059036;28;20100;-91
2021/05/12 09:51:45;;;;;;;1.40;1.30;;;16.80;52.20;;;;;;5049568;28;20022;-92
2021/05/12 09:57:47;;;;;;;2.83;1.25;;;16.80;51.70;;;;;;5051931;28;20093;-91
2021/05/12 10:00:49;;;;;;;1.88;1.73;;;16.80;52.20;;;;;;5042683;28;20040;-93
2021/05/12 10:03:46;;;;;;;1.10;1.08;;;16.90;51.80;;;;;;4945261;28;20035;-92
2021/05/12 10:06:25;;;;;;;1.30;1.20;;;17.10;52.00;;;;;;4981422;28;20050;-92
2021/05/12 10:09:51;;;;;;;1.17;1.17;;;17.40;51.80;;;;;;4967992;28;20031;-93
2021/05/12 10:12:29;;;;;;;1.30;1.20;;;17.60;51.50;;;;;;4973017;28;20090;-92
2021/05/12 10:15:02;;;;;;;1.25;1.17;;;17.60;50.10;;;;;;4963122;28;20061;-92
2021/05/12 10:17:33;;;;;;;1.58;1.48;;;17.70;49.40;;;;;;4977916;28;20035;-91
2021/05/12 10:20:28;;;;;;;2.75;1.23;;;17.60;49.50;;;;;;5007040;28;20443;-92
2021/05/12 10:22:58;;;;;;;1.70;1.60;;;17.60;49.10;;;;;;5028936;28;20030;-92
2021/05/12 10:25:25;;;;;;;1.27;1.20;;;17.50;49.20;;;;;;5045303;28;20037;-92
2021/05/12 10:27:56;;;;;;;3.80;1.67;;;17.40;49.40;;;;;;5030104;28;20055;-92
2021/05/12 10:30:27;;;;;;;1.92;1.80;;;17.40;48.80;;;;;;5030100;28;20022;-92
2021/05/12 10:33:02;;;;;;;2.03;1.70;;;17.30;49.00;;;;;;5047422;28;20034;-92
2021/05/12 10:35:43;;;;;;;1.50;1.40;;;17.30;49.60;;;;;;5034786;28;20060;-92
2021/05/12 10:38:32;;;;;;;2.20;2.00;;;17.40;49.90;;;;;;5019846;28;20021;-93
2021/05/12 10:41:28;;;;;;;2.10;1.45;;;17.50;49.80;;;;;;5033050;28;20028;-92
2021/05/12 10:47:53;;;;;;;2.90;1.75;;;17.70;49.80;;;;;;5045939;28;20057;-92
2021/05/12 10:50:49;;;;;;;;;;;;;;;;;;;;;
2021/05/12 10:53:48;;;;;;;2.70;2.08;;;18.20;50.20;;;;;;5028175;28;20132;-92
2021/05/12 11:00:18;;;;;;;2.03;1.77;;;18.20;49.60;;;;;;5038295;28;20041;-92
2021/05/12 11:07:06;;;;;;;2.60;2.40;;;18.30;50.00;;;;;;4976578;29;20027;-93
2021/05/12 11:09:41;;;;;;;2.47;1.95;;;18.30;49.00;;;;;;4976518;29;20475;-91
2021/05/12 11:12:10;;;;;;;1.85;1.75;;;18.40;49.30;;;;;;4952873;29;20534;-92
2021/05/12 11:15:15;;;;;;;1.95;1.85;;;18.50;49.30;;;;;;4953461;29;20019;-90
2021/05/12 11:17:47;;;;;;;;;;;18.50;49.00;;;;;;4965867;29;20054;-90
2021/05/12 11:20:32;;;;;;;2.72;1.80;;;18.50;48.80;;;;;;4955023;29;19906;-92
2021/05/12 11:22:58;;;;;;;2.13;1.92;;;18.50;47.90;;;;;;4964021;28;20136;-93
2021/05/12 11:25:59;;;;;;;8.00;2.22;;;18.40;48.10;;;;;;5043991;28;20033;-93
2021/05/12 11:28:45;;;;;;;2.40;2.20;;;18.30;48.40;;;;;;5039741;28;20046;-91
2021/05/12 11:33:50;;;;;;;1.98;1.88;;;18.00;48.80;;;;;;5021727;28;20107;-90
2021/05/12 11:36:23;;;;;;;2.20;2.00;;;17.90;48.70;;;;;;5011186;28;20026;-91
2021/05/12 11:38:51;;;;;;;3.03;1.83;;;17.90;49.20;;;;;;5016623;28;20048;-90
2021/05/12 11:41:42;;;;;;;1.80;1.50;;;17.90;49.10;;;;;;5030578;28;20029;-91
2021/05/12 11:44:13;;;;;;;2.97;1.60;;;18.00;49.30;;;;;;5038812;28;20053;-91
2021/05/12 11:46:42;;;;;;;2.95;2.10;;;18.10;49.10;;;;;;5039807;28;20032;-92
2021/05/12 11:49:12;;;;;;;2.30;2.10;;;18.30;48.80;;;;;;5039242;28;20388;-92
2021/05/12 11:51:44;;;;;;;3.95;2.42;;;18.30;48.80;;;;;;5056606;28;20026;-92
2021/05/12 11:54:18;;;;;;;6.97;2.00;;;18.40;49.20;;;;;;5038294;28;20014;-92
2021/05/12 11:57:04;;;;;;;5.00;2.45;;;18.50;48.80;;;;;;5041662;28;20533;-93
2021/05/12 11:59:47;;;;;;;5.05;2.50;;;18.60;48.70;;;;;;5026074;28;20038;-91
2021/05/12 12:02:14;;;;;;;3.53;2.37;;;18.80;48.40;;;;;;5026307;28;20029;-91
2021/05/12 12:07:17;;;;;;;2.40;2.20;;;19.00;47.70;;;;;;5043584;28;20041;-92
2021/05/12 12:13:16;;;;;;;2.28;2.10;;;19.40;45.60;;;;;;5048174;28;20061;-91
2021/05/12 12:15:47;;;;;;;2.13;2.03;;;19.30;45.80;;;;;;5052265;28;20020;-92
2021/05/12 12:18:41;;;;;;;2.50;2.30;;;19.40;46.20;;;;;;5057528;28;20479;-92
2021/05/12 12:21:11;;;;;;;1.98;1.88;;;19.70;46.10;;;;;;5030820;28;20084;-92
2021/05/12 12:23:42;;;;;;;2.83;2.13;;;19.90;45.70;;;;;;5022639;28;20123;-92
2021/05/12 12:26:35;;;;;;;2.15;1.95;;;19.90;45.20;;;;;;5035938;28;20029;-92
2021/05/12 12:29:09;;;;;;;2.97;2.10;;;20.10;46.00;;;;;;5056129;28;20492;-92
2021/05/12 12:31:42;;;;;;;2.08;1.88;;;20.50;45.50;;;;;;5024131;28;20143;-93
2021/05/12 12:34:30;;;;;;;2.30;2.03;;;20.60;44.90;;;;;;5039745;28;20460;-92
2021/05/12 12:37:14;;;;;;;2.35;2.13;;;20.60;44.10;;;;;;5038861;28;20037;-93
2021/05/12 12:43:05;;;;;;;2.03;1.85;;;20.00;44.20;;;;;;5057813;28;20087;-91
2021/05/12 12:46:08;;;;;;;2.20;1.50;;;19.60;44.30;;;;;;5021549;28;20099;-93
2021/05/12 12:48:48;;;;;;;1.88;1.77;;;19.30;44.70;;;;;;5034682;28;20040;-92
2021/05/12 12:51:33;;;;;;;2.13;1.75;;;19.10;45.90;;;;;;5041312;28;20076;-92
2021/05/12 12:54:00;;;;;;;2.08;1.70;;;19.10;45.80;;;;;;5064017;28;20056;-90
2021/05/12 12:56:26;;;;;;;1.67;1.58;;;19.20;46.00;;;;;;5020989;28;20037;-92
2021/05/12 12:59:13;;;;;;;1.73;1.60;;;19.30;45.40;;;;;;5039810;28;20032;-91
2021/05/12 13:01:49;;;;;;;1.98;1.85;;;19.30;45.00;;;;;;5045990;28;20032;-92
2021/05/12 13:04:28;;;;;;;2.30;2.10;;;19.20;45.30;;;;;;5038016;28;20144;-92
2021/05/12 13:07:03;;;;;;;1.80;1.70;;;19.00;45.40;;;;;;5028885;28;20065;-92
2021/05/12 13:09:31;;;;;;;2.15;1.83;;;18.80;45.70;;;;;;5040544;28;20029;-92
2021/05/12 13:11:58;;;;;;;2.60;2.22;;;18.70;46.00;;;;;;5017633;28;20026;-91
2021/05/12 13:14:25;;;;;;;2.22;1.95;;;18.60;46.70;;;;;;5026968;28;20029;-90
2021/05/12 13:17:04;;;;;;;2.00;1.80;;;18.60;46.10;;;;;;5040048;28;20033;-93
2021/05/12 13:19:43;;;;;;;1.92;1.73;;;18.60;45.80;;;;;;5022212;28;20044;-92
2021/05/12 13:22:43;;;;;;;2.08;1.88;;;18.60;45.80;;;;;;5015115;28;20585;-91
2021/05/12 13:25:10;;;;;;;1.77;1.55;;;18.60;46.00;;;;;;5024831;28;20032;-93
2021/05/12 13:27:39;;;;;;;4.57;2.33;;;18.50;46.20;;;;;;5021872;28;20085;-92
2021/05/12 13:30:10;;;;;;;13.55;3.17;;;18.30;47.20;;;;;;5064223;28;20111;-91
2021/05/12 13:32:51;;;;;;;6.70;1.73;;;18.00;50.70;;;;;;5048904;28;20032;-91
2021/05/12 13:39:26;;;;;;;2.00;1.90;;;17.00;55.70;;;;;;4951220;29;20779;-91